sensor_id;sensor_type;location;lat;lon;timestamp;P1;durP1;ratioP1;P2;durP2;ratioP2
67839;SDS011;54636;51.684;5.142;2022-12-07T00:00:25;11.63;;;6.07;;
67839;SDS011;54636;51.684;5.142;2022-12-07T00:02:50;9.85;;;6.05;;
67839;SDS011;54636;51.684;5.142;2022-12-07T00:05:16;9.93;;;6.82;;
67839;SDS011;54636;51.684;5.142;2022-12-07T00:07:41;12.00;;;6.47;;
67839;SDS011;54636;51.684;5.142;2022-12-07T00:10:06;9.20;;;7.28;;
67839;SDS011;54636;51.684;5.142;2022-12-07T00:12:32;10.50;;;6.15;;
67839;SDS011;54636;51.684;5.142;2022-12-07T00:14:57;12.18;;;6.80;;
67839;SDS011;54636;51.684;5.142;2022-12-07T00:17:22;10.20;;;6.70;;
67839;SDS011;54636;51.684;5.142;2022-12-07T00:19:48;7.30;;;6.60;;
67839;SDS011;54636;51.684;5.142;2022-12-07T00:22:13;14.98;;;6.85;;
67839;SDS011;54636;51.684;5.142;2022-12-07T00:24:38;12.00;;;6.65;;
67839;SDS011;54636;51.684;5.142;2022-12-07T00:27:04;10.18;;;6.45;;
67839;SDS011;54636;51.684;5.142;2022-12-07T00:29:29;9.77;;;6.13;;
67839;SDS011;54636;51.684;5.142;2022-12-07T00:31:54;10.93;;;6.07;;
67839;SDS011;54636;51.684;5.142;2022-12-07T00:34:20;10.35;;;6.60;;
67839;SDS011;54636;51.684;5.142;2022-12-07T00:36:46;12.68;;;6.30;;
67839;SDS011;54636;51.684;5.142;2022-12-07T00:39:12;8.38;;;6.10;;
67839;SDS011;54636;51.684;5.142;2022-12-07T00:41:38;12.13;;;5.28;;
67839;SDS011;54636;51.684;5.142;2022-12-07T00:44:03;9.45;;;5.75;;
67839;SDS011;54636;51.684;5.142;2022-12-07T00:46:29;6.50;;;5.03;;
67839;SDS011;54636;51.684;5.142;2022-12-07T00:48:55;8.23;;;5.80;;
67839;SDS011;54636;51.684;5.142;2022-12-07T00:51:21;8.48;;;5.95;;
67839;SDS011;54636;51.684;5.142;2022-12-07T00:53:48;7.95;;;6.45;;
67839;SDS011;54636;51.684;5.142;2022-12-07T00:56:21;12.68;;;6.22;;
67839;SDS011;54636;51.684;5.142;2022-12-07T00:58:52;12.20;;;5.80;;
67839;SDS011;54636;51.684;5.142;2022-12-07T01:01:18;9.50;;;5.60;;
67839;SDS011;54636;51.684;5.142;2022-12-07T01:03:44;12.82;;;5.60;;
67839;SDS011;54636;51.684;5.142;2022-12-07T01:06:09;10.00;;;5.45;;
67839;SDS011;54636;51.684;5.142;2022-12-07T01:08:39;11.40;;;5.55;;
67839;SDS011;54636;51.684;5.142;2022-12-07T01:11:06;14.63;;;5.47;;
67839;SDS011;54636;51.684;5.142;2022-12-07T01:13:34;13.98;;;5.97;;
67839;SDS011;54636;51.684;5.142;2022-12-07T01:16:01;10.98;;;5.68;;
67839;SDS011;54636;51.684;5.142;2022-12-07T01:18:29;7.10;;;4.95;;
67839;SDS011;54636;51.684;5.142;2022-12-07T01:21:00;7.90;;;4.78;;
67839;SDS011;54636;51.684;5.142;2022-12-07T01:23:26;8.23;;;5.30;;
67839;SDS011;54636;51.684;5.142;2022-12-07T01:25:56;14.73;;;6.03;;
67839;SDS011;54636;51.684;5.142;2022-12-07T01:28:23;9.25;;;5.45;;
67839;SDS011;54636;51.684;5.142;2022-12-07T01:30:59;11.18;;;5.50;;
67839;SDS011;54636;51.684;5.142;2022-12-07T01:33:29;11.27;;;5.38;;
67839;SDS011;54636;51.684;5.142;2022-12-07T01:36:01;14.25;;;4.95;;
67839;SDS011;54636;51.684;5.142;2022-12-07T01:38:30;10.27;;;5.55;;
67839;SDS011;54636;51.684;5.142;2022-12-07T01:40:58;8.45;;;5.20;;
67839;SDS011;54636;51.684;5.142;2022-12-07T01:43:25;10.13;;;5.28;;
67839;SDS011;54636;51.684;5.142;2022-12-07T01:45:53;9.30;;;5.53;;
67839;SDS011;54636;51.684;5.142;2022-12-07T01:48:24;9.38;;;4.95;;
67839;SDS011;54636;51.684;5.142;2022-12-07T01:50:52;9.25;;;4.95;;
67839;SDS011;54636;51.684;5.142;2022-12-07T01:53:21;8.95;;;4.65;;
67839;SDS011;54636;51.684;5.142;2022-12-07T01:55:51;9.95;;;5.22;;
67839;SDS011;54636;51.684;5.142;2022-12-07T01:58:17;10.13;;;5.25;;
67839;SDS011;54636;51.684;5.142;2022-12-07T02:00:43;11.85;;;5.38;;
67839;SDS011;54636;51.684;5.142;2022-12-07T02:03:19;9.25;;;5.15;;
67839;SDS011;54636;51.684;5.142;2022-12-07T02:05:49;11.38;;;6.30;;
67839;SDS011;54636;51.684;5.142;2022-12-07T02:08:16;6.10;;;4.68;;
67839;SDS011;54636;51.684;5.142;2022-12-07T02:10:42;5.82;;;5.00;;
67839;SDS011;54636;51.684;5.142;2022-12-07T02:13:21;9.20;;;5.13;;
67839;SDS011;54636;51.684;5.142;2022-12-07T02:26:51;7.07;;;4.28;;
67839;SDS011;54636;51.684;5.142;2022-12-07T02:29:45;10.07;;;4.70;;
67839;SDS011;54636;51.684;5.142;2022-12-07T02:43:17;6.78;;;3.92;;
67839;SDS011;54636;51.684;5.142;2022-12-07T02:45:47;13.75;;;3.95;;
67839;SDS011;54636;51.684;5.142;2022-12-07T02:48:16;6.63;;;3.13;;
67839;SDS011;54636;51.684;5.142;2022-12-07T02:50:44;13.38;;;3.30;;
67839;SDS011;54636;51.684;5.142;2022-12-07T02:55:54;4.20;;;2.78;;
67839;SDS011;54636;51.684;5.142;2022-12-07T02:58:45;7.03;;;2.75;;
67839;SDS011;54636;51.684;5.142;2022-12-07T03:06:56;6.30;;;2.53;;
67839;SDS011;54636;51.684;5.142;2022-12-07T03:09:32;5.38;;;2.88;;
67839;SDS011;54636;51.684;5.142;2022-12-07T03:15:29;10.73;;;3.05;;
67839;SDS011;54636;51.684;5.142;2022-12-07T03:17:59;8.93;;;3.08;;
67839;SDS011;54636;51.684;5.142;2022-12-07T03:20:27;6.97;;;2.70;;
67839;SDS011;54636;51.684;5.142;2022-12-07T03:22:54;6.38;;;2.28;;
67839;SDS011;54636;51.684;5.142;2022-12-07T03:25:21;4.00;;;2.30;;
67839;SDS011;54636;51.684;5.142;2022-12-07T03:27:54;10.45;;;2.38;;
67839;SDS011;54636;51.684;5.142;2022-12-07T03:30:24;6.90;;;2.13;;
67839;SDS011;54636;51.684;5.142;2022-12-07T03:33:00;6.55;;;1.70;;
67839;SDS011;54636;51.684;5.142;2022-12-07T03:35:32;8.55;;;2.45;;
67839;SDS011;54636;51.684;5.142;2022-12-07T03:38:10;11.18;;;1.98;;
67839;SDS011;54636;51.684;5.142;2022-12-07T03:40:58;8.80;;;1.80;;
67839;SDS011;54636;51.684;5.142;2022-12-07T03:43:28;8.18;;;2.28;;
67839;SDS011;54636;51.684;5.142;2022-12-07T03:51:34;15.20;;;2.00;;
67839;SDS011;54636;51.684;5.142;2022-12-07T03:54:19;4.40;;;1.70;;
67839;SDS011;54636;51.684;5.142;2022-12-07T03:56:50;8.63;;;1.70;;
67839;SDS011;54636;51.684;5.142;2022-12-07T03:59:17;15.68;;;2.08;;
67839;SDS011;54636;51.684;5.142;2022-12-07T04:01:44;7.80;;;1.50;;
67839;SDS011;54636;51.684;5.142;2022-12-07T04:04:16;12.40;;;2.13;;
67839;SDS011;54636;51.684;5.142;2022-12-07T04:06:42;6.32;;;2.00;;
67839;SDS011;54636;51.684;5.142;2022-12-07T04:09:07;7.60;;;1.83;;
67839;SDS011;54636;51.684;5.142;2022-12-07T04:11:33;7.32;;;1.85;;
67839;SDS011;54636;51.684;5.142;2022-12-07T04:13:58;7.97;;;1.92;;
67839;SDS011;54636;51.684;5.142;2022-12-07T04:16:42;3.88;;;1.90;;
67839;SDS011;54636;51.684;5.142;2022-12-07T04:19:07;10.65;;;2.00;;
67839;SDS011;54636;51.684;5.142;2022-12-07T04:21:32;4.18;;;2.30;;
67839;SDS011;54636;51.684;5.142;2022-12-07T04:23:58;6.20;;;2.33;;
67839;SDS011;54636;51.684;5.142;2022-12-07T04:26:23;5.65;;;2.15;;
67839;SDS011;54636;51.684;5.142;2022-12-07T04:28:48;8.20;;;2.60;;
67839;SDS011;54636;51.684;5.142;2022-12-07T04:31:14;10.93;;;2.88;;
67839;SDS011;54636;51.684;5.142;2022-12-07T04:33:39;8.50;;;2.78;;
67839;SDS011;54636;51.684;5.142;2022-12-07T04:36:05;5.35;;;2.90;;
67839;SDS011;54636;51.684;5.142;2022-12-07T04:38:30;7.10;;;3.03;;
67839;SDS011;54636;51.684;5.142;2022-12-07T04:40:56;10.98;;;3.15;;
67839;SDS011;54636;51.684;5.142;2022-12-07T04:43:21;4.07;;;2.58;;
67839;SDS011;54636;51.684;5.142;2022-12-07T04:45:47;11.30;;;2.78;;
67839;SDS011;54636;51.684;5.142;2022-12-07T04:48:13;5.82;;;2.42;;
67839;SDS011;54636;51.684;5.142;2022-12-07T04:50:39;7.70;;;2.60;;
67839;SDS011;54636;51.684;5.142;2022-12-07T04:53:04;12.52;;;3.03;;
67839;SDS011;54636;51.684;5.142;2022-12-07T04:55:30;7.03;;;3.97;;
67839;SDS011;54636;51.684;5.142;2022-12-07T04:57:55;15.23;;;4.15;;
67839;SDS011;54636;51.684;5.142;2022-12-07T05:00:20;6.22;;;4.05;;
67839;SDS011;54636;51.684;5.142;2022-12-07T05:02:46;9.80;;;4.10;;
67839;SDS011;54636;51.684;5.142;2022-12-07T05:05:11;9.38;;;3.90;;
67839;SDS011;54636;51.684;5.142;2022-12-07T05:07:36;9.60;;;4.68;;
67839;SDS011;54636;51.684;5.142;2022-12-07T05:10:02;12.80;;;5.13;;
67839;SDS011;54636;51.684;5.142;2022-12-07T05:12:27;9.63;;;5.78;;
67839;SDS011;54636;51.684;5.142;2022-12-07T05:14:53;14.15;;;6.05;;
67839;SDS011;54636;51.684;5.142;2022-12-07T05:17:18;11.45;;;6.22;;
67839;SDS011;54636;51.684;5.142;2022-12-07T05:19:43;13.85;;;6.22;;
67839;SDS011;54636;51.684;5.142;2022-12-07T05:22:09;13.82;;;6.32;;
67839;SDS011;54636;51.684;5.142;2022-12-07T05:24:34;11.18;;;5.63;;
67839;SDS011;54636;51.684;5.142;2022-12-07T05:27:00;14.68;;;6.63;;
67839;SDS011;54636;51.684;5.142;2022-12-07T05:29:25;9.93;;;6.15;;
67839;SDS011;54636;51.684;5.142;2022-12-07T05:31:50;14.98;;;6.82;;
67839;SDS011;54636;51.684;5.142;2022-12-07T05:34:16;11.93;;;6.30;;
67839;SDS011;54636;51.684;5.142;2022-12-07T05:36:41;10.20;;;5.72;;
67839;SDS011;54636;51.684;5.142;2022-12-07T05:39:07;13.15;;;6.00;;
67839;SDS011;54636;51.684;5.142;2022-12-07T05:41:33;16.20;;;6.20;;
67839;SDS011;54636;51.684;5.142;2022-12-07T05:44:17;9.15;;;5.30;;
67839;SDS011;54636;51.684;5.142;2022-12-07T05:46:42;14.13;;;5.65;;
67839;SDS011;54636;51.684;5.142;2022-12-07T05:49:07;11.48;;;6.60;;
67839;SDS011;54636;51.684;5.142;2022-12-07T05:51:33;10.07;;;6.57;;
67839;SDS011;54636;51.684;5.142;2022-12-07T05:53:58;16.88;;;8.07;;
67839;SDS011;54636;51.684;5.142;2022-12-07T05:56:24;11.32;;;6.95;;
67839;SDS011;54636;51.684;5.142;2022-12-07T05:58:51;14.50;;;7.65;;
67839;SDS011;54636;51.684;5.142;2022-12-07T06:01:35;19.00;;;7.55;;
67839;SDS011;54636;51.684;5.142;2022-12-07T06:04:01;8.73;;;7.43;;
67839;SDS011;54636;51.684;5.142;2022-12-07T06:06:26;13.68;;;8.13;;
67839;SDS011;54636;51.684;5.142;2022-12-07T06:08:51;14.45;;;7.68;;
67839;SDS011;54636;51.684;5.142;2022-12-07T06:11:17;19.30;;;7.03;;
67839;SDS011;54636;51.684;5.142;2022-12-07T06:14:01;15.35;;;6.88;;
67839;SDS011;54636;51.684;5.142;2022-12-07T06:16:26;12.02;;;6.55;;
67839;SDS011;54636;51.684;5.142;2022-12-07T06:18:51;12.82;;;7.10;;
67839;SDS011;54636;51.684;5.142;2022-12-07T06:21:17;19.15;;;7.03;;
67839;SDS011;54636;51.684;5.142;2022-12-07T06:23:42;11.93;;;6.75;;
67839;SDS011;54636;51.684;5.142;2022-12-07T06:26:07;9.43;;;6.47;;
67839;SDS011;54636;51.684;5.142;2022-12-07T06:28:33;12.63;;;6.72;;
67839;SDS011;54636;51.684;5.142;2022-12-07T06:31:02;12.25;;;6.70;;
67839;SDS011;54636;51.684;5.142;2022-12-07T06:33:28;12.98;;;6.72;;
67839;SDS011;54636;51.684;5.142;2022-12-07T06:35:53;14.70;;;7.22;;
67839;SDS011;54636;51.684;5.142;2022-12-07T06:38:19;16.80;;;6.53;;
67839;SDS011;54636;51.684;5.142;2022-12-07T06:40:45;14.05;;;7.13;;
67839;SDS011;54636;51.684;5.142;2022-12-07T06:43:10;12.60;;;6.53;;
67839;SDS011;54636;51.684;5.142;2022-12-07T06:45:35;8.00;;;6.55;;
67839;SDS011;54636;51.684;5.142;2022-12-07T06:48:01;11.55;;;6.88;;
67839;SDS011;54636;51.684;5.142;2022-12-07T06:50:26;12.18;;;6.78;;
67839;SDS011;54636;51.684;5.142;2022-12-07T06:52:52;12.20;;;7.80;;
67839;SDS011;54636;51.684;5.142;2022-12-07T06:55:17;10.18;;;7.85;;
67839;SDS011;54636;51.684;5.142;2022-12-07T06:57:43;16.77;;;7.43;;
67839;SDS011;54636;51.684;5.142;2022-12-07T07:00:09;11.02;;;7.72;;
67839;SDS011;54636;51.684;5.142;2022-12-07T07:02:35;13.40;;;6.40;;
67839;SDS011;54636;51.684;5.142;2022-12-07T07:05:01;17.73;;;6.97;;
67839;SDS011;54636;51.684;5.142;2022-12-07T07:07:26;21.20;;;7.43;;
67839;SDS011;54636;51.684;5.142;2022-12-07T07:09:51;22.08;;;6.93;;
67839;SDS011;54636;51.684;5.142;2022-12-07T07:12:17;8.80;;;6.60;;
67839;SDS011;54636;51.684;5.142;2022-12-07T07:14:42;12.77;;;6.88;;
67839;SDS011;54636;51.684;5.142;2022-12-07T07:17:08;14.60;;;6.97;;
67839;SDS011;54636;51.684;5.142;2022-12-07T07:19:33;17.48;;;7.03;;
67839;SDS011;54636;51.684;5.142;2022-12-07T07:21:59;12.52;;;6.95;;
67839;SDS011;54636;51.684;5.142;2022-12-07T07:24:24;10.77;;;6.78;;
67839;SDS011;54636;51.684;5.142;2022-12-07T07:26:50;17.83;;;7.03;;
67839;SDS011;54636;51.684;5.142;2022-12-07T07:29:15;13.05;;;6.47;;
67839;SDS011;54636;51.684;5.142;2022-12-07T07:31:40;9.43;;;5.43;;
67839;SDS011;54636;51.684;5.142;2022-12-07T07:34:06;13.02;;;5.75;;
67839;SDS011;54636;51.684;5.142;2022-12-07T07:36:32;19.63;;;6.03;;
67839;SDS011;54636;51.684;5.142;2022-12-07T07:38:57;11.10;;;5.28;;
67839;SDS011;54636;51.684;5.142;2022-12-07T07:41:22;5.57;;;5.03;;
67839;SDS011;54636;51.684;5.142;2022-12-07T07:43:48;9.55;;;5.15;;
67839;SDS011;54636;51.684;5.142;2022-12-07T07:46:13;9.73;;;4.80;;
67839;SDS011;54636;51.684;5.142;2022-12-07T07:48:38;8.88;;;5.32;;
67839;SDS011;54636;51.684;5.142;2022-12-07T07:51:05;14.73;;;5.20;;
67839;SDS011;54636;51.684;5.142;2022-12-07T07:53:33;11.80;;;6.63;;
67839;SDS011;54636;51.684;5.142;2022-12-07T07:55:59;13.60;;;5.55;;
67839;SDS011;54636;51.684;5.142;2022-12-07T07:58:24;7.18;;;4.80;;
67839;SDS011;54636;51.684;5.142;2022-12-07T08:00:50;17.80;;;6.10;;
67839;SDS011;54636;51.684;5.142;2022-12-07T08:03:16;14.88;;;6.60;;
67839;SDS011;54636;51.684;5.142;2022-12-07T08:05:42;12.43;;;7.20;;
67839;SDS011;54636;51.684;5.142;2022-12-07T08:08:07;12.00;;;6.28;;
67839;SDS011;54636;51.684;5.142;2022-12-07T08:10:33;14.57;;;6.07;;
67839;SDS011;54636;51.684;5.142;2022-12-07T08:13:00;11.18;;;5.75;;
67839;SDS011;54636;51.684;5.142;2022-12-07T08:15:38;10.45;;;5.15;;
67839;SDS011;54636;51.684;5.142;2022-12-07T08:18:05;14.27;;;5.95;;
67839;SDS011;54636;51.684;5.142;2022-12-07T08:20:31;10.20;;;5.60;;
67839;SDS011;54636;51.684;5.142;2022-12-07T08:22:57;13.07;;;6.40;;
67839;SDS011;54636;51.684;5.142;2022-12-07T08:25:23;13.77;;;6.22;;
67839;SDS011;54636;51.684;5.142;2022-12-07T08:27:49;11.98;;;5.13;;
67839;SDS011;54636;51.684;5.142;2022-12-07T08:30:16;7.25;;;5.13;;
67839;SDS011;54636;51.684;5.142;2022-12-07T08:32:42;13.18;;;5.25;;
67839;SDS011;54636;51.684;5.142;2022-12-07T08:35:09;12.73;;;5.32;;
67839;SDS011;54636;51.684;5.142;2022-12-07T08:37:35;14.32;;;5.43;;
67839;SDS011;54636;51.684;5.142;2022-12-07T08:40:01;11.00;;;4.63;;
67839;SDS011;54636;51.684;5.142;2022-12-07T08:42:27;13.20;;;5.00;;
67839;SDS011;54636;51.684;5.142;2022-12-07T08:44:55;11.23;;;5.40;;
67839;SDS011;54636;51.684;5.142;2022-12-07T08:47:23;9.82;;;4.72;;
67839;SDS011;54636;51.684;5.142;2022-12-07T08:49:49;11.45;;;5.18;;
67839;SDS011;54636;51.684;5.142;2022-12-07T08:52:16;12.70;;;5.30;;
67839;SDS011;54636;51.684;5.142;2022-12-07T08:54:42;15.25;;;5.30;;
67839;SDS011;54636;51.684;5.142;2022-12-07T08:57:08;11.98;;;5.70;;
67839;SDS011;54636;51.684;5.142;2022-12-07T08:59:35;13.52;;;5.53;;
67839;SDS011;54636;51.684;5.142;2022-12-07T09:02:02;9.05;;;5.10;;
67839;SDS011;54636;51.684;5.142;2022-12-07T09:04:28;10.45;;;5.80;;
67839;SDS011;54636;51.684;5.142;2022-12-07T09:06:54;7.85;;;5.82;;
67839;SDS011;54636;51.684;5.142;2022-12-07T09:09:20;11.27;;;5.47;;
67839;SDS011;54636;51.684;5.142;2022-12-07T09:11:45;13.68;;;6.35;;
67839;SDS011;54636;51.684;5.142;2022-12-07T09:14:11;10.57;;;6.35;;
67839;SDS011;54636;51.684;5.142;2022-12-07T09:16:37;13.45;;;6.15;;
67839;SDS011;54636;51.684;5.142;2022-12-07T09:19:03;15.05;;;6.38;;
67839;SDS011;54636;51.684;5.142;2022-12-07T09:21:28;10.52;;;6.55;;
67839;SDS011;54636;51.684;5.142;2022-12-07T09:23:54;15.15;;;6.00;;
67839;SDS011;54636;51.684;5.142;2022-12-07T09:26:19;11.95;;;6.70;;
67839;SDS011;54636;51.684;5.142;2022-12-07T09:28:44;14.90;;;6.72;;
67839;SDS011;54636;51.684;5.142;2022-12-07T09:31:10;10.57;;;6.22;;
67839;SDS011;54636;51.684;5.142;2022-12-07T09:33:35;8.82;;;5.35;;
67839;SDS011;54636;51.684;5.142;2022-12-07T09:36:01;14.63;;;6.22;;
67839;SDS011;54636;51.684;5.142;2022-12-07T09:38:27;22.10;;;6.75;;
67839;SDS011;54636;51.684;5.142;2022-12-07T09:40:54;10.32;;;6.13;;
67839;SDS011;54636;51.684;5.142;2022-12-07T09:43:21;14.85;;;6.97;;
67839;SDS011;54636;51.684;5.142;2022-12-07T09:45:50;12.98;;;6.28;;
67839;SDS011;54636;51.684;5.142;2022-12-07T09:48:20;10.40;;;5.68;;
67839;SDS011;54636;51.684;5.142;2022-12-07T09:50:48;13.77;;;5.65;;
67839;SDS011;54636;51.684;5.142;2022-12-07T09:53:29;10.13;;;6.00;;
67839;SDS011;54636;51.684;5.142;2022-12-07T09:55:58;13.23;;;5.82;;
67839;SDS011;54636;51.684;5.142;2022-12-07T09:58:25;14.13;;;5.97;;
67839;SDS011;54636;51.684;5.142;2022-12-07T10:00:57;15.30;;;6.63;;
67839;SDS011;54636;51.684;5.142;2022-12-07T10:03:28;12.70;;;6.45;;
67839;SDS011;54636;51.684;5.142;2022-12-07T10:05:54;14.70;;;5.75;;
67839;SDS011;54636;51.684;5.142;2022-12-07T10:08:20;14.13;;;6.32;;
67839;SDS011;54636;51.684;5.142;2022-12-07T10:10:49;20.80;;;6.18;;
67839;SDS011;54636;51.684;5.142;2022-12-07T10:18:26;13.05;;;6.10;;
67839;SDS011;54636;51.684;5.142;2022-12-07T10:23:34;20.52;;;6.03;;
67839;SDS011;54636;51.684;5.142;2022-12-07T10:28:47;15.45;;;5.38;;
67839;SDS011;54636;51.684;5.142;2022-12-07T10:31:17;15.52;;;6.10;;
67839;SDS011;54636;51.684;5.142;2022-12-07T10:33:55;9.93;;;5.47;;
67839;SDS011;54636;51.684;5.142;2022-12-07T10:39:03;22.38;;;5.30;;
67839;SDS011;54636;51.684;5.142;2022-12-07T10:41:52;8.30;;;3.92;;
67839;SDS011;54636;51.684;5.142;2022-12-07T10:44:26;14.85;;;5.72;;
67839;SDS011;54636;51.684;5.142;2022-12-07T11:01:07;7.25;;;3.45;;
67839;SDS011;54636;51.684;5.142;2022-12-07T11:06:50;8.98;;;2.72;;
67839;SDS011;54636;51.684;5.142;2022-12-07T11:09:30;10.75;;;3.42;;
67839;SDS011;54636;51.684;5.142;2022-12-07T11:12:03;13.88;;;3.80;;
67839;SDS011;54636;51.684;5.142;2022-12-07T11:14:36;8.25;;;3.25;;
67839;SDS011;54636;51.684;5.142;2022-12-07T11:17:32;7.82;;;2.88;;
67839;SDS011;54636;51.684;5.142;2022-12-07T11:22:51;5.55;;;2.30;;
67839;SDS011;54636;51.684;5.142;2022-12-07T11:34:08;9.20;;;2.85;;
67839;SDS011;54636;51.684;5.142;2022-12-07T11:36:41;5.65;;;1.83;;
67839;SDS011;54636;51.684;5.142;2022-12-07T11:41:43;4.70;;;1.90;;
67839;SDS011;54636;51.684;5.142;2022-12-07T11:44:23;2.78;;;1.40;;
67839;SDS011;54636;51.684;5.142;2022-12-07T11:55:38;8.20;;;1.60;;
67839;SDS011;54636;51.684;5.142;2022-12-07T12:01:02;7.05;;;1.52;;
67839;SDS011;54636;51.684;5.142;2022-12-07T12:03:34;5.68;;;1.55;;
67839;SDS011;54636;51.684;5.142;2022-12-07T12:06:05;3.63;;;1.70;;
67839;SDS011;54636;51.684;5.142;2022-12-07T12:08:33;6.47;;;1.92;;
67839;SDS011;54636;51.684;5.142;2022-12-07T12:11:16;5.43;;;1.77;;
67839;SDS011;54636;51.684;5.142;2022-12-07T12:17:03;4.00;;;1.60;;
67839;SDS011;54636;51.684;5.142;2022-12-07T12:22:43;6.82;;;2.47;;
67839;SDS011;54636;51.684;5.142;2022-12-07T12:27:53;4.05;;;1.38;;
67839;SDS011;54636;51.684;5.142;2022-12-07T12:30:29;6.97;;;1.77;;
67839;SDS011;54636;51.684;5.142;2022-12-07T12:33:12;4.40;;;1.23;;
67839;SDS011;54636;51.684;5.142;2022-12-07T12:35:39;4.00;;;1.40;;
67839;SDS011;54636;51.684;5.142;2022-12-07T12:40:50;2.78;;;1.52;;
67839;SDS011;54636;51.684;5.142;2022-12-07T12:48:55;5.60;;;1.95;;
67839;SDS011;54636;51.684;5.142;2022-12-07T12:51:39;10.05;;;2.22;;
67839;SDS011;54636;51.684;5.142;2022-12-07T12:59:24;3.30;;;1.75;;
67839;SDS011;54636;51.684;5.142;2022-12-07T13:01:54;3.28;;;1.85;;
67839;SDS011;54636;51.684;5.142;2022-12-07T13:04:37;5.85;;;1.70;;
67839;SDS011;54636;51.684;5.142;2022-12-07T13:16:35;5.53;;;1.80;;
67839;SDS011;54636;51.684;5.142;2022-12-07T13:21:01;7.07;;;1.40;;
67839;SDS011;54636;51.684;5.142;2022-12-07T13:26:23;2.08;;;1.52;;
67839;SDS011;54636;51.684;5.142;2022-12-07T13:37:02;1.65;;;0.80;;
67839;SDS011;54636;51.684;5.142;2022-12-07T13:39:35;0.55;;;0.52;;
67839;SDS011;54636;51.684;5.142;2022-12-07T13:42:16;2.55;;;1.08;;
67839;SDS011;54636;51.684;5.142;2022-12-07T13:44:49;1.40;;;1.08;;
67839;SDS011;54636;51.684;5.142;2022-12-07T13:49:47;1.58;;;1.00;;
67839;SDS011;54636;51.684;5.142;2022-12-07T13:52:16;3.20;;;0.68;;
67839;SDS011;54636;51.684;5.142;2022-12-07T13:54:56;2.00;;;0.93;;
67839;SDS011;54636;51.684;5.142;2022-12-07T13:57:22;6.28;;;1.42;;
67839;SDS011;54636;51.684;5.142;2022-12-07T13:59:49;2.35;;;1.08;;
67839;SDS011;54636;51.684;5.142;2022-12-07T14:02:22;1.13;;;1.00;;
67839;SDS011;54636;51.684;5.142;2022-12-07T14:04:51;4.05;;;1.52;;
67839;SDS011;54636;51.684;5.142;2022-12-07T14:07:24;2.65;;;1.25;;
67839;SDS011;54636;51.684;5.142;2022-12-07T14:09:55;1.20;;;0.95;;
67839;SDS011;54636;51.684;5.142;2022-12-07T14:12:23;2.15;;;1.30;;
67839;SDS011;54636;51.684;5.142;2022-12-07T14:14:49;1.48;;;1.08;;
67839;SDS011;54636;51.684;5.142;2022-12-07T14:17:16;2.92;;;1.10;;
67839;SDS011;54636;51.684;5.142;2022-12-07T14:19:48;2.45;;;1.20;;
67839;SDS011;54636;51.684;5.142;2022-12-07T14:22:34;3.92;;;1.30;;
67839;SDS011;54636;51.684;5.142;2022-12-07T14:27:52;2.30;;;1.10;;
67839;SDS011;54636;51.684;5.142;2022-12-07T14:30:24;2.65;;;1.25;;
67839;SDS011;54636;51.684;5.142;2022-12-07T14:33:04;3.00;;;1.60;;
67839;SDS011;54636;51.684;5.142;2022-12-07T14:35:30;1.40;;;1.30;;
67839;SDS011;54636;51.684;5.142;2022-12-07T14:37:57;2.00;;;1.80;;
67839;SDS011;54636;51.684;5.142;2022-12-07T14:40:23;1.40;;;1.30;;
67839;SDS011;54636;51.684;5.142;2022-12-07T14:43:34;1.50;;;1.40;;
67839;SDS011;54636;51.684;5.142;2022-12-07T14:45:42;14.93;;;9.82;;
67839;SDS011;54636;51.684;5.142;2022-12-07T14:48:10;10.75;;;6.13;;
67839;SDS011;54636;51.684;5.142;2022-12-07T14:50:38;10.02;;;3.53;;
67839;SDS011;54636;51.684;5.142;2022-12-07T14:53:10;4.43;;;3.70;;
67839;SDS011;54636;51.684;5.142;2022-12-07T14:55:38;6.15;;;4.18;;
67839;SDS011;54636;51.684;5.142;2022-12-07T14:58:03;10.45;;;8.90;;
67839;SDS011;54636;51.684;5.142;2022-12-07T15:00:29;10.25;;;8.45;;
67839;SDS011;54636;51.684;5.142;2022-12-07T15:02:55;12.48;;;7.93;;
67839;SDS011;54636;51.684;5.142;2022-12-07T15:05:21;8.65;;;7.03;;
67839;SDS011;54636;51.684;5.142;2022-12-07T15:07:47;10.30;;;7.25;;
67839;SDS011;54636;51.684;5.142;2022-12-07T15:10:17;10.68;;;8.07;;
67839;SDS011;54636;51.684;5.142;2022-12-07T15:12:48;8.05;;;4.35;;
67839;SDS011;54636;51.684;5.142;2022-12-07T15:15:13;5.00;;;4.13;;
67839;SDS011;54636;51.684;5.142;2022-12-07T15:17:39;6.53;;;4.63;;
67839;SDS011;54636;51.684;5.142;2022-12-07T15:20:05;12.13;;;5.95;;
67839;SDS011;54636;51.684;5.142;2022-12-07T15:22:33;6.65;;;5.28;;
67839;SDS011;54636;51.684;5.142;2022-12-07T15:24:58;6.25;;;3.92;;
67839;SDS011;54636;51.684;5.142;2022-12-07T15:27:23;5.05;;;2.90;;
67839;SDS011;54636;51.684;5.142;2022-12-07T15:29:49;4.00;;;2.42;;
67839;SDS011;54636;51.684;5.142;2022-12-07T15:32:14;3.65;;;2.60;;
67839;SDS011;54636;51.684;5.142;2022-12-07T15:34:40;6.40;;;2.60;;
67839;SDS011;54636;51.684;5.142;2022-12-07T15:37:05;6.18;;;2.55;;
67839;SDS011;54636;51.684;5.142;2022-12-07T15:39:31;5.15;;;2.08;;
67839;SDS011;54636;51.684;5.142;2022-12-07T15:41:56;9.55;;;3.17;;
67839;SDS011;54636;51.684;5.142;2022-12-07T15:44:22;6.53;;;3.72;;
67839;SDS011;54636;51.684;5.142;2022-12-07T15:47:05;5.90;;;3.53;;
67839;SDS011;54636;51.684;5.142;2022-12-07T15:49:31;5.80;;;2.60;;
67839;SDS011;54636;51.684;5.142;2022-12-07T15:51:56;5.03;;;2.60;;
67839;SDS011;54636;51.684;5.142;2022-12-07T15:54:23;13.35;;;3.38;;
67839;SDS011;54636;51.684;5.142;2022-12-07T15:56:50;6.60;;;2.83;;
67839;SDS011;54636;51.684;5.142;2022-12-07T15:59:16;3.65;;;2.78;;
67839;SDS011;54636;51.684;5.142;2022-12-07T16:01:41;6.32;;;2.78;;
67839;SDS011;54636;51.684;5.142;2022-12-07T16:04:07;7.47;;;3.10;;
67839;SDS011;54636;51.684;5.142;2022-12-07T16:06:33;5.70;;;3.80;;
67839;SDS011;54636;51.684;5.142;2022-12-07T16:08:58;4.30;;;3.95;;
67839;SDS011;54636;51.684;5.142;2022-12-07T16:11:24;10.63;;;3.92;;
67839;SDS011;54636;51.684;5.142;2022-12-07T16:13:49;5.32;;;3.83;;
67839;SDS011;54636;51.684;5.142;2022-12-07T16:16:16;4.35;;;4.03;;
67839;SDS011;54636;51.684;5.142;2022-12-07T16:18:44;9.88;;;4.60;;
67839;SDS011;54636;51.684;5.142;2022-12-07T16:21:11;6.13;;;5.15;;
67839;SDS011;54636;51.684;5.142;2022-12-07T16:23:36;4.38;;;3.55;;
67839;SDS011;54636;51.684;5.142;2022-12-07T16:26:06;4.78;;;3.42;;
67839;SDS011;54636;51.684;5.142;2022-12-07T16:28:43;3.78;;;3.15;;
67839;SDS011;54636;51.684;5.142;2022-12-07T16:31:10;3.40;;;2.80;;
67839;SDS011;54636;51.684;5.142;2022-12-07T16:33:40;6.20;;;3.38;;
67839;SDS011;54636;51.684;5.142;2022-12-07T16:36:08;6.10;;;3.33;;
67839;SDS011;54636;51.684;5.142;2022-12-07T16:38:34;5.72;;;3.22;;
67839;SDS011;54636;51.684;5.142;2022-12-07T16:41:00;5.97;;;3.45;;
67839;SDS011;54636;51.684;5.142;2022-12-07T16:43:26;6.28;;;3.40;;
67839;SDS011;54636;51.684;5.142;2022-12-07T16:45:52;6.35;;;3.83;;
67839;SDS011;54636;51.684;5.142;2022-12-07T16:48:17;4.57;;;3.72;;
67839;SDS011;54636;51.684;5.142;2022-12-07T16:50:43;6.97;;;2.72;;
67839;SDS011;54636;51.684;5.142;2022-12-07T16:53:09;13.50;;;4.40;;
67839;SDS011;54636;51.684;5.142;2022-12-07T16:55:39;8.32;;;3.78;;
67839;SDS011;54636;51.684;5.142;2022-12-07T16:58:05;11.13;;;4.25;;
67839;SDS011;54636;51.684;5.142;2022-12-07T17:00:31;4.13;;;3.60;;
67839;SDS011;54636;51.684;5.142;2022-12-07T17:02:57;3.95;;;3.40;;
67839;SDS011;54636;51.684;5.142;2022-12-07T17:05:23;5.60;;;3.72;;
67839;SDS011;54636;51.684;5.142;2022-12-07T17:07:49;6.30;;;3.90;;
67839;SDS011;54636;51.684;5.142;2022-12-07T17:10:15;3.72;;;3.35;;
67839;SDS011;54636;51.684;5.142;2022-12-07T17:12:40;6.32;;;4.55;;